sensor_id;sensor_type;location;lat;lon;timestamp;temperature;humidity
1297;DHT22;641;48.492;9.184;2024-01-07T00:01:14;4.40;99.90
1297;DHT22;641;48.492;9.184;2024-01-07T00:03:40;4.40;99.90
1297;DHT22;641;48.492;9.184;2024-01-07T00:06:06;4.40;99.90
1297;DHT22;641;48.492;9.184;2024-01-07T00:08:32;4.40;99.90
1297;DHT22;641;48.492;9.184;2024-01-07T00:10:57;4.40;99.90
1297;DHT22;641;48.492;9.184;2024-01-07T00:13:23;4.40;99.90
1297;DHT22;641;48.492;9.184;2024-01-07T00:15:48;4.50;99.90
1297;DHT22;641;48.492;9.184;2024-01-07T00:18:14;4.50;99.90
1297;DHT22;641;48.492;9.184;2024-01-07T00:20:39;4.50;99.90
1297;DHT22;641;48.492;9.184;2024-01-07T00:23:05;4.60;99.90
1297;DHT22;641;48.492;9.184;2024-01-07T00:25:30;4.60;99.90
1297;DHT22;641;48.492;9.184;2024-01-07T00:27:56;4.60;99.90
1297;DHT22;641;48.492;9.184;2024-01-07T00:30:21;4.70;99.90
1297;DHT22;641;48.492;9.184;2024-01-07T00:32:47;4.70;99.90
1297;DHT22;641;48.492;9.184;2024-01-07T00:35:13;4.60;99.90
1297;DHT22;641;48.492;9.184;2024-01-07T00:37:38;4.70;99.90
1297;DHT22;641;48.492;9.184;2024-01-07T00:40:05;4.70;99.90
1297;DHT22;641;48.492;9.184;2024-01-07T00:42:30;4.50;99.90
1297;DHT22;641;48.492;9.184;2024-01-07T00:44:56;4.60;99.90
1297;DHT22;641;48.492;9.184;2024-01-07T00:47:21;4.70;99.90
1297;DHT22;641;48.492;9.184;2024-01-07T00:49:47;4.70;99.90
1297;DHT22;641;48.492;9.184;2024-01-07T00:52:12;4.80;99.90
1297;DHT22;641;48.492;9.184;2024-01-07T00:54:38;4.90;99.90
1297;DHT22;641;48.492;9.184;2024-01-07T00:57:04;4.90;99.90
1297;DHT22;641;48.492;9.184;2024-01-07T00:59:29;4.80;99.90
1297;DHT22;641;48.492;9.184;2024-01-07T01:01:55;4.70;99.90
1297;DHT22;641;48.492;9.184;2024-01-07T01:04:21;4.70;99.90
1297;DHT22;641;48.492;9.184;2024-01-07T01:06:46;4.60;99.90
1297;DHT22;641;48.492;9.184;2024-01-07T01:09:12;4.60;99.90
1297;DHT22;641;48.492;9.184;2024-01-07T01:11:38;4.60;99.90
1297;DHT22;641;48.492;9.184;2024-01-07T01:14:03;4.70;99.90
1297;DHT22;641;48.492;9.184;2024-01-07T01:16:29;4.90;99.90
1297;DHT22;641;48.492;9.184;2024-01-07T01:18:55;4.70;99.90
1297;DHT22;641;48.492;9.184;2024-01-07T01:21:20;4.50;99.90
1297;DHT22;641;48.492;9.184;2024-01-07T01:23:47;4.50;99.90
1297;DHT22;641;48.492;9.184;2024-01-07T01:26:12;4.60;99.90
1297;DHT22;641;48.492;9.184;2024-01-07T01:28:38;4.60;99.90
1297;DHT22;641;48.492;9.184;2024-01-07T01:31:04;4.60;99.90
1297;DHT22;641;48.492;9.184;2024-01-07T01:33:30;4.60;99.90
1297;DHT22;641;48.492;9.184;2024-01-07T01:35:55;4.70;99.90
1297;DHT22;641;48.492;9.184;2024-01-07T01:38:21;4.60;99.90
1297;DHT22;641;48.492;9.184;2024-01-07T01:40:53;4.60;99.90
1297;DHT22;641;48.492;9.184;2024-01-07T01:43:28;4.70;99.90
1297;DHT22;641;48.492;9.184;2024-01-07T01:45:55;4.70;99.90
1297;DHT22;641;48.492;9.184;2024-01-07T01:48:22;4.60;99.90
1297;DHT22;641;48.492;9.184;2024-01-07T01:50:48;4.60;99.90
1297;DHT22;641;48.492;9.184;2024-01-07T01:53:15;4.50;99.90
1297;DHT22;641;48.492;9.184;2024-01-07T01:55:42;4.50;99.90
1297;DHT22;641;48.492;9.184;2024-01-07T01:58:09;4.40;99.90
1297;DHT22;641;48.492;9.184;2024-01-07T02:00:35;4.40;99.90
1297;DHT22;641;48.492;9.184;2024-01-07T02:03:00;4.40;99.90
1297;DHT22;641;48.492;9.184;2024-01-07T02:05:26;4.60;99.90
1297;DHT22;641;48.492;9.184;2024-01-07T02:07:53;4.80;99.90
1297;DHT22;641;48.492;9.184;2024-01-07T02:10:20;4.60;99.90
1297;DHT22;641;48.492;9.184;2024-01-07T02:12:46;4.60;99.90
1297;DHT22;641;48.492;9.184;2024-01-07T02:15:11;4.60;99.90
1297;DHT22;641;48.492;9.184;2024-01-07T02:17:37;4.50;99.90
1297;DHT22;641;48.492;9.184;2024-01-07T02:20:02;4.70;99.90
1297;DHT22;641;48.492;9.184;2024-01-07T02:22:28;4.80;99.90
1297;DHT22;641;48.492;9.184;2024-01-07T02:24:53;4.70;99.90
1297;DHT22;641;48.492;9.184;2024-01-07T02:27:19;4.60;99.90
1297;DHT22;641;48.492;9.184;2024-01-07T02:29:45;4.60;99.90
1297;DHT22;641;48.492;9.184;2024-01-07T02:32:10;4.60;99.90
1297;DHT22;641;48.492;9.184;2024-01-07T02:34:36;4.60;99.90
1297;DHT22;641;48.492;9.184;2024-01-07T02:37:01;4.50;99.90
1297;DHT22;641;48.492;9.184;2024-01-07T02:39:27;4.50;99.90
1297;DHT22;641;48.492;9.184;2024-01-07T02:41:52;4.50;99.90
1297;DHT22;641;48.492;9.184;2024-01-07T02:44:18;4.70;99.90
1297;DHT22;641;48.492;9.184;2024-01-07T02:46:43;4.80;99.90
1297;DHT22;641;48.492;9.184;2024-01-07T02:49:09;4.70;99.90
1297;DHT22;641;48.492;9.184;2024-01-07T02:51:34;4.60;99.90
1297;DHT22;641;48.492;9.184;2024-01-07T02:54:00;4.50;99.90
1297;DHT22;641;48.492;9.184;2024-01-07T02:56:26;4.50;99.90
1297;DHT22;641;48.492;9.184;2024-01-07T02:58:51;4.50;99.90
1297;DHT22;641;48.492;9.184;2024-01-07T03:01:17;4.60;99.90
1297;DHT22;641;48.492;9.184;2024-01-07T03:03:42;4.50;99.90
1297;DHT22;641;48.492;9.184;2024-01-07T03:06:08;4.50;99.90
1297;DHT22;641;48.492;9.184;2024-01-07T03:08:34;4.50;99.90
1297;DHT22;641;48.492;9.184;2024-01-07T03:11:04;4.50;99.90
1297;DHT22;641;48.492;9.184;2024-01-07T03:13:30;4.60;99.90
1297;DHT22;641;48.492;9.184;2024-01-07T03:15:56;4.50;99.90
1297;DHT22;641;48.492;9.184;2024-01-07T03:18:21;4.50;99.90
1297;DHT22;641;48.492;9.184;2024-01-07T03:20:48;4.40;99.90
1297;DHT22;641;48.492;9.184;2024-01-07T03:23:13;4.40;99.90
1297;DHT22;641;48.492;9.184;2024-01-07T03:25:39;4.50;99.90
1297;DHT22;641;48.492;9.184;2024-01-07T03:28:05;4.50;99.90
1297;DHT22;641;48.492;9.184;2024-01-07T03:30:30;4.40;99.90
1297;DHT22;641;48.492;9.184;2024-01-07T03:32:56;4.60;99.90
1297;DHT22;641;48.492;9.184;2024-01-07T03:35:21;4.50;99.90
1297;DHT22;641;48.492;9.184;2024-01-07T03:37:49;4.50;99.90
1297;DHT22;641;48.492;9.184;2024-01-07T03:40:15;4.40;99.90
1297;DHT22;641;48.492;9.184;2024-01-07T03:42:40;4.40;99.90
1297;DHT22;641;48.492;9.184;2024-01-07T03:45:06;4.50;99.90
1297;DHT22;641;48.492;9.184;2024-01-07T03:47:32;4.40;99.90
1297;DHT22;641;48.492;9.184;2024-01-07T03:49:57;4.40;99.90
1297;DHT22;641;48.492;9.184;2024-01-07T03:52:23;4.40;99.90
1297;DHT22;641;48.492;9.184;2024-01-07T03:54:48;4.40;99.90
1297;DHT22;641;48.492;9.184;2024-01-07T03:57:14;4.30;99.90
1297;DHT22;641;48.492;9.184;2024-01-07T03:59:39;4.20;99.90
1297;DHT22;641;48.492;9.184;2024-01-07T04:02:05;4.20;99.90
1297;DHT22;641;48.492;9.184;2024-01-07T04:04:30;4.30;99.90
1297;DHT22;641;48.492;9.184;2024-01-07T04:06:56;4.40;99.90
1297;DHT22;641;48.492;9.184;2024-01-07T04:09:22;4.50;99.90
1297;DHT22;641;48.492;9.184;2024-01-07T04:11:47;4.40;99.90
1297;DHT22;641;48.492;9.184;2024-01-07T04:14:14;4.40;99.90
1297;DHT22;641;48.492;9.184;2024-01-07T04:16:40;4.30;99.90
1297;DHT22;641;48.492;9.184;2024-01-07T04:19:06;4.40;99.90
1297;DHT22;641;48.492;9.184;2024-01-07T04:21:32;4.40;99.90
1297;DHT22;641;48.492;9.184;2024-01-07T04:23:57;4.50;99.90
1297;DHT22;641;48.492;9.184;2024-01-07T04:26:23;4.40;99.90
1297;DHT22;641;48.492;9.184;2024-01-07T04:28:49;4.40;99.90
1297;DHT22;641;48.492;9.184;2024-01-07T04:31:15;4.20;99.90
1297;DHT22;641;48.492;9.184;2024-01-07T04:33:40;4.30;99.90
1297;DHT22;641;48.492;9.184;2024-01-07T04:36:06;4.30;99.90
1297;DHT22;641;48.492;9.184;2024-01-07T04:38:32;4.20;99.90
1297;DHT22;641;48.492;9.184;2024-01-07T04:40:57;4.20;99.90
1297;DHT22;641;48.492;9.184;2024-01-07T04:43:23;4.20;99.90
1297;DHT22;641;48.492;9.184;2024-01-07T04:45:48;4.20;99.90
1297;DHT22;641;48.492;9.184;2024-01-07T04:48:14;4.30;99.90
1297;DHT22;641;48.492;9.184;2024-01-07T04:50:40;4.40;99.90
1297;DHT22;641;48.492;9.184;2024-01-07T04:53:09;4.40;99.90
1297;DHT22;641;48.492;9.184;2024-01-07T04:55:35;4.30;99.90
1297;DHT22;641;48.492;9.184;2024-01-07T04:58:01;4.20;99.90
1297;DHT22;641;48.492;9.184;2024-01-07T05:00:27;4.30;99.90
1297;DHT22;641;48.492;9.184;2024-01-07T05:02:52;4.30;99.90
1297;DHT22;641;48.492;9.184;2024-01-07T05:05:18;4.30;99.90
1297;DHT22;641;48.492;9.184;2024-01-07T05:07:44;4.30;99.90
1297;DHT22;641;48.492;9.184;2024-01-07T05:10:09;4.20;99.90
1297;DHT22;641;48.492;9.184;2024-01-07T05:12:35;4.20;99.90
1297;DHT22;641;48.492;9.184;2024-01-07T05:15:00;4.20;99.90
1297;DHT22;641;48.492;9.184;2024-01-07T05:17:26;4.20;99.90
1297;DHT22;641;48.492;9.184;2024-01-07T05:19:54;4.20;99.90
1297;DHT22;641;48.492;9.184;2024-01-07T05:22:20;4.10;99.90
1297;DHT22;641;48.492;9.184;2024-01-07T05:24:46;4.20;99.90
1297;DHT22;641;48.492;9.184;2024-01-07T05:27:11;4.20;99.90
1297;DHT22;641;48.492;9.184;2024-01-07T05:29:37;4.20;99.90
1297;DHT22;641;48.492;9.184;2024-01-07T05:32:03;4.20;99.90
1297;DHT22;641;48.492;9.184;2024-01-07T05:34:29;4.10;99.90
1297;DHT22;641;48.492;9.184;2024-01-07T05:36:55;4.20;99.90
1297;DHT22;641;48.492;9.184;2024-01-07T05:39:20;4.20;99.90
1297;DHT22;641;48.492;9.184;2024-01-07T05:41:46;4.10;99.90
1297;DHT22;641;48.492;9.184;2024-01-07T05:44:12;4.10;99.90
1297;DHT22;641;48.492;9.184;2024-01-07T05:46:40;4.10;99.90
1297;DHT22;641;48.492;9.184;2024-01-07T05:49:06;3.90;99.90
1297;DHT22;641;48.492;9.184;2024-01-07T05:51:32;3.80;99.90
1297;DHT22;641;48.492;9.184;2024-01-07T05:53:57;3.80;99.90
1297;DHT22;641;48.492;9.184;2024-01-07T05:56:23;3.80;99.90
1297;DHT22;641;48.492;9.184;2024-01-07T05:58:49;3.90;99.90
1297;DHT22;641;48.492;9.184;2024-01-07T06:01:21;3.90;99.90
1297;DHT22;641;48.492;9.184;2024-01-07T06:03:47;3.90;99.90
1297;DHT22;641;48.492;9.184;2024-01-07T06:06:14;3.80;99.90
1297;DHT22;641;48.492;9.184;2024-01-07T06:08:41;3.70;99.90
1297;DHT22;641;48.492;9.184;2024-01-07T06:11:07;3.70;99.90
1297;DHT22;641;48.492;9.184;2024-01-07T06:13:33;3.70;99.90
1297;DHT22;641;48.492;9.184;2024-01-07T06:15:59;3.70;99.90
1297;DHT22;641;48.492;9.184;2024-01-07T06:18:25;3.70;99.90
1297;DHT22;641;48.492;9.184;2024-01-07T06:20:50;3.60;99.90
1297;DHT22;641;48.492;9.184;2024-01-07T06:23:16;3.60;99.90
1297;DHT22;641;48.492;9.184;2024-01-07T06:25:41;3.60;99.90
1297;DHT22;641;48.492;9.184;2024-01-07T06:28:07;3.70;99.90
1297;DHT22;641;48.492;9.184;2024-01-07T06:30:32;3.60;99.90
1297;DHT22;641;48.492;9.184;2024-01-07T06:32:59;3.60;99.90
1297;DHT22;641;48.492;9.184;2024-01-07T06:35:24;3.50;99.90
1297;DHT22;641;48.492;9.184;2024-01-07T06:37:50;3.60;99.90
1297;DHT22;641;48.492;9.184;2024-01-07T06:40:16;3.60;99.90
1297;DHT22;641;48.492;9.184;2024-01-07T06:42:41;3.60;99.90
1297;DHT22;641;48.492;9.184;2024-01-07T06:45:09;3.60;99.90
1297;DHT22;641;48.492;9.184;2024-01-07T06:47:34;3.60;99.90
1297;DHT22;641;48.492;9.184;2024-01-07T06:50:00;3.70;99.90
1297;DHT22;641;48.492;9.184;2024-01-07T06:52:25;3.70;99.90
1297;DHT22;641;48.492;9.184;2024-01-07T06:54:51;3.70;99.90
1297;DHT22;641;48.492;9.184;2024-01-07T06:57:17;3.60;99.90
1297;DHT22;641;48.492;9.184;2024-01-07T06:59:42;3.60;99.90
1297;DHT22;641;48.492;9.184;2024-01-07T07:02:08;3.60;99.90
1297;DHT22;641;48.492;9.184;2024-01-07T07:04:33;3.60;99.90
1297;DHT22;641;48.492;9.184;2024-01-07T07:06:59;3.50;99.90
1297;DHT22;641;48.492;9.184;2024-01-07T07:09:25;3.60;99.90
1297;DHT22;641;48.492;9.184;2024-01-07T07:11:51;3.60;99.90
1297;DHT22;641;48.492;9.184;2024-01-07T07:14:16;3.50;99.90
1297;DHT22;641;48.492;9.184;2024-01-07T07:16:42;3.40;99.90
1297;DHT22;641;48.492;9.184;2024-01-07T07:19:07;3.40;99.90
1297;DHT22;641;48.492;9.184;2024-01-07T07:21:33;3.50;99.90
1297;DHT22;641;48.492;9.184;2024-01-07T07:23:58;3.40;99.90
1297;DHT22;641;48.492;9.184;2024-01-07T07:26:24;3.40;99.90
1297;DHT22;641;48.492;9.184;2024-01-07T07:28:50;3.50;99.90
1297;DHT22;641;48.492;9.184;2024-01-07T07:31:15;3.40;99.90
1297;DHT22;641;48.492;9.184;2024-01-07T07:33:41;3.50;99.90
1297;DHT22;641;48.492;9.184;2024-01-07T07:36:07;3.60;99.90
1297;DHT22;641;48.492;9.184;2024-01-07T07:38:32;3.50;99.90
1297;DHT22;641;48.492;9.184;2024-01-07T07:40:59;3.60;99.90
1297;DHT22;641;48.492;9.184;2024-01-07T07:43:25;3.60;99.90
1297;DHT22;641;48.492;9.184;2024-01-07T07:45:50;3.50;99.90
1297;DHT22;641;48.492;9.184;2024-01-07T07:48:16;3.60;99.90
1297;DHT22;641;48.492;9.184;2024-01-07T07:50:42;3.50;99.90
1297;DHT22;641;48.492;9.184;2024-01-07T07:53:08;3.50;99.90
1297;DHT22;641;48.492;9.184;2024-01-07T07:55:33;3.40;99.90
1297;DHT22;641;48.492;9.184;2024-01-07T07:57:59;3.50;99.90
1297;DHT22;641;48.492;9.184;2024-01-07T08:00:24;3.60;99.90
1297;DHT22;641;48.492;9.184;2024-01-07T08:02:50;3.60;99.90
1297;DHT22;641;48.492;9.184;2024-01-07T08:05:16;3.50;99.90
1297;DHT22;641;48.492;9.184;2024-01-07T08:07:42;3.50;99.90
1297;DHT22;641;48.492;9.184;2024-01-07T08:10:07;3.50;99.90
1297;DHT22;641;48.492;9.184;2024-01-07T08:12:33;3.50;99.90
1297;DHT22;641;48.492;9.184;2024-01-07T08:14:59;3.50;99.90
1297;DHT22;641;48.492;9.184;2024-01-07T08:17:25;3.50;99.90
1297;DHT22;641;48.492;9.184;2024-01-07T08:19:50;3.60;99.90
1297;DHT22;641;48.492;9.184;2024-01-07T08:22:16;3.70;99.90
1297;DHT22;641;48.492;9.184;2024-01-07T08:24:41;3.70;99.90
1297;DHT22;641;48.492;9.184;2024-01-07T08:27:08;3.70;99.90
1297;DHT22;641;48.492;9.184;2024-01-07T08:29:33;3.80;99.90
1297;DHT22;641;48.492;9.184;2024-01-07T08:31:59;3.90;99.90
1297;DHT22;641;48.492;9.184;2024-01-07T08:34:24;3.80;99.90
1297;DHT22;641;48.492;9.184;2024-01-07T08:36:50;3.80;99.90
1297;DHT22;641;48.492;9.184;2024-01-07T08:39:16;3.90;99.90
1297;DHT22;641;48.492;9.184;2024-01-07T08:41:41;3.90;99.90
1297;DHT22;641;48.492;9.184;2024-01-07T08:44:07;3.90;99.90
1297;DHT22;641;48.492;9.184;2024-01-07T08:46:35;3.90;99.90
1297;DHT22;641;48.492;9.184;2024-01-07T08:49:02;3.90;99.90
1297;DHT22;641;48.492;9.184;2024-01-07T08:51:28;3.80;99.90
1297;DHT22;641;48.492;9.184;2024-01-07T08:53:54;3.80;99.90
1297;DHT22;641;48.492;9.184;2024-01-07T08:56:20;3.80;99.90
1297;DHT22;641;48.492;9.184;2024-01-07T08:58:46;3.80;99.90
1297;DHT22;641;48.492;9.184;2024-01-07T09:01:14;3.70;99.90
1297;DHT22;641;48.492;9.184;2024-01-07T09:03:40;3.40;99.90
1297;DHT22;641;48.492;9.184;2024-01-07T09:06:08;3.30;99.90
1297;DHT22;641;48.492;9.184;2024-01-07T09:08:34;3.30;99.90
1297;DHT22;641;48.492;9.184;2024-01-07T09:11:01;3.40;99.90
1297;DHT22;641;48.492;9.184;2024-01-07T09:13:29;3.30;99.90
1297;DHT22;641;48.492;9.184;2024-01-07T09:15:54;3.10;99.90
1297;DHT22;641;48.492;9.184;2024-01-07T09:18:20;3.30;99.90
1297;DHT22;641;48.492;9.184;2024-01-07T09:20:46;3.40;99.90
1297;DHT22;641;48.492;9.184;2024-01-07T09:23:12;3.50;99.90
1297;DHT22;641;48.492;9.184;2024-01-07T09:25:37;3.70;99.90
1297;DHT22;641;48.492;9.184;2024-01-07T09:28:03;3.60;99.90
1297;DHT22;641;48.492;9.184;2024-01-07T09:30:29;3.50;99.90
1297;DHT22;641;48.492;9.184;2024-01-07T09:32:55;3.40;99.90
1297;DHT22;641;48.492;9.184;2024-01-07T09:35:20;3.40;99.90
1297;DHT22;641;48.492;9.184;2024-01-07T09:37:46;3.30;99.90
1297;DHT22;641;48.492;9.184;2024-01-07T09:40:12;3.30;99.90
1297;DHT22;641;48.492;9.184;2024-01-07T09:42:37;3.20;99.90
1297;DHT22;641;48.492;9.184;2024-01-07T09:45:03;3.10;99.90
1297;DHT22;641;48.492;9.184;2024-01-07T09:47:32;3.20;99.90
1297;DHT22;641;48.492;9.184;2024-01-07T09:49:58;3.20;99.90
1297;DHT22;641;48.492;9.184;2024-01-07T09:52:25;3.20;99.90
1297;DHT22;641;48.492;9.184;2024-01-07T09:54:53;3.30;99.90
1297;DHT22;641;48.492;9.184;2024-01-07T09:57:21;3.30;99.90
1297;DHT22;641;48.492;9.184;2024-01-07T09:59:46;3.20;99.90
1297;DHT22;641;48.492;9.184;2024-01-07T10:02:12;3.40;99.90
1297;DHT22;641;48.492;9.184;2024-01-07T10:04:39;3.50;99.90
1297;DHT22;641;48.492;9.184;2024-01-07T10:07:05;3.50;99.90
1297;DHT22;641;48.492;9.184;2024-01-07T10:09:33;3.50;99.90
1297;DHT22;641;48.492;9.184;2024-01-07T10:11:59;3.40;99.90
1297;DHT22;641;48.492;9.184;2024-01-07T10:14:24;3.40;99.90
1297;DHT22;641;48.492;9.184;2024-01-07T10:16:51;3.30;99.90
1297;DHT22;641;48.492;9.184;2024-01-07T10:19:21;3.30;99.90
1297;DHT22;641;48.492;9.184;2024-01-07T10:21:58;3.30;99.90
1297;DHT22;641;48.492;9.184;2024-01-07T10:24:25;3.30;99.90
1297;DHT22;641;48.492;9.184;2024-01-07T10:26:50;3.50;99.90
1297;DHT22;641;48.492;9.184;2024-01-07T10:29:16;3.40;99.90
1297;DHT22;641;48.492;9.184;2024-01-07T10:31:41;3.40;99.90
1297;DHT22;641;48.492;9.184;2024-01-07T10:34:09;3.40;99.90
1297;DHT22;641;48.492;9.184;2024-01-07T10:36:35;3.50;99.90
1297;DHT22;641;48.492;9.184;2024-01-07T10:39:02;3.40;99.90
1297;DHT22;641;48.492;9.184;2024-01-07T10:41:29;3.30;99.90
1297;DHT22;641;48.492;9.184;2024-01-07T10:43:55;3.20;99.90
1297;DHT22;641;48.492;9.184;2024-01-07T10:46:33;3.10;99.90
1297;DHT22;641;48.492;9.184;2024-01-07T10:49:34;3.00;99.90
1297;DHT22;641;48.492;9.184;2024-01-07T10:52:05;2.90;99.90
1297;DHT22;641;48.492;9.184;2024-01-07T10:54:32;2.80;99.90
1297;DHT22;641;48.492;9.184;2024-01-07T10:57:26;2.80;99.90
1297;DHT22;641;48.492;9.184;2024-01-07T10:59:53;2.80;99.90
1297;DHT22;641;48.492;9.184;2024-01-07T11:02:22;2.70;99.90
1297;DHT22;641;48.492;9.184;2024-01-07T11:05:15;2.80;99.90
1297;DHT22;641;48.492;9.184;2024-01-07T11:07:45;2.70;99.90
1297;DHT22;641;48.492;9.184;2024-01-07T11:10:19;2.70;99.90
1297;DHT22;641;48.492;9.184;2024-01-07T11:12:55;2.70;99.90
1297;DHT22;641;48.492;9.184;2024-01-07T11:18:21;2.60;99.90
1297;DHT22;641;48.492;9.184;2024-01-07T11:20:48;2.70;99.90
1297;DHT22;641;48.492;9.184;2024-01-07T11:23:31;2.70;99.90
1297;DHT22;641;48.492;9.184;2024-01-07T11:26:02;2.60;99.90
1297;DHT22;641;48.492;9.184;2024-01-07T11:28:52;2.70;99.90
1297;DHT22;641;48.492;9.184;2024-01-07T11:32:01;2.70;99.90
1297;DHT22;641;48.492;9.184;2024-01-07T11:34:08;2.80;99.90
1297;DHT22;641;48.492;9.184;2024-01-07T11:36:38;2.90;99.90
1297;DHT22;641;48.492;9.184;2024-01-07T11:39:04;2.90;99.90
1297;DHT22;641;48.492;9.184;2024-01-07T11:41:35;2.90;99.90
1297;DHT22;641;48.492;9.184;2024-01-07T11:44:01;2.80;99.90
1297;DHT22;641;48.492;9.184;2024-01-07T11:46:29;2.60;99.90
1297;DHT22;641;48.492;9.184;2024-01-07T11:48:57;2.50;99.90
1297;DHT22;641;48.492;9.184;2024-01-07T11:51:31;2.50;99.90
1297;DHT22;641;48.492;9.184;2024-01-07T11:53:58;2.50;99.90
1297;DHT22;641;48.492;9.184;2024-01-07T11:56:27;2.50;99.90
1297;DHT22;641;48.492;9.184;2024-01-07T11:58:53;2.60;99.90
1297;DHT22;641;48.492;9.184;2024-01-07T12:01:18;2.70;99.90
1297;DHT22;641;48.492;9.184;2024-01-07T12:03:44;2.70;99.90
1297;DHT22;641;48.492;9.184;2024-01-07T12:06:10;2.80;99.90
1297;DHT22;641;48.492;9.184;2024-01-07T12:08:44;2.90;99.90
1297;DHT22;641;48.492;9.184;2024-01-07T12:11:14;2.70;99.90
1297;DHT22;641;48.492;9.184;2024-01-07T12:13:40;2.60;99.90
1297;DHT22;641;48.492;9.184;2024-01-07T12:16:07;2.60;99.90
1297;DHT22;641;48.492;9.184;2024-01-07T12:18:33;2.70;99.90
1297;DHT22;641;48.492;9.184;2024-01-07T12:20:59;2.70;99.90
1297;DHT22;641;48.492;9.184;2024-01-07T12:23:26;2.60;99.90
1297;DHT22;641;48.492;9.184;2024-01-07T12:25:55;2.60;99.90
1297;DHT22;641;48.492;9.184;2024-01-07T12:28:32;2.50;99.90
1297;DHT22;641;48.492;9.184;2024-01-07T12:30:57;2.50;99.90
1297;DHT22;641;48.492;9.184;2024-01-07T12:33:25;2.60;99.90
1297;DHT22;641;48.492;9.184;2024-01-07T12:35:51;2.60;99.90
1297;DHT22;641;48.492;9.184;2024-01-07T12:38:25;2.60;99.90
1297;DHT22;641;48.492;9.184;2024-01-07T12:40:52;2.50;99.90
1297;DHT22;641;48.492;9.184;2024-01-07T12:43:18;2.50;99.90
1297;DHT22;641;48.492;9.184;2024-01-07T12:45:44;2.60;99.90
1297;DHT22;641;48.492;9.184;2024-01-07T12:48:09;2.60;99.90
1297;DHT22;641;48.492;9.184;2024-01-07T12:50:35;2.60;99.90
1297;DHT22;641;48.492;9.184;2024-01-07T12:53:01;2.50;99.90
1297;DHT22;641;48.492;9.184;2024-01-07T12:55:27;2.50;99.90
1297;DHT22;641;48.492;9.184;2024-01-07T12:57:52;2.40;99.90
1297;DHT22;641;48.492;9.184;2024-01-07T13:00:19;2.40;99.90
1297;DHT22;641;48.492;9.184;2024-01-07T13:02:45;2.50;99.90
1297;DHT22;641;48.492;9.184;2024-01-07T13:05:36;2.50;99.90
1297;DHT22;641;48.492;9.184;2024-01-07T13:08:07;2.30;99.90
1297;DHT22;641;48.492;9.184;2024-01-07T13:10:33;2.20;99.90
1297;DHT22;641;48.492;9.184;2024-01-07T13:12:59;2.30;99.90
1297;DHT22;641;48.492;9.184;2024-01-07T13:15:24;2.40;99.90
1297;DHT22;641;48.492;9.184;2024-01-07T13:17:50;2.30;99.90
1297;DHT22;641;48.492;9.184;2024-01-07T13:20:16;2.40;99.90
1297;DHT22;641;48.492;9.184;2024-01-07T13:22:45;2.30;99.90
1297;DHT22;641;48.492;9.184;2024-01-07T13:25:35;2.30;99.90
1297;DHT22;641;48.492;9.184;2024-01-07T13:32:31;2.00;99.90
1297;DHT22;641;48.492;9.184;2024-01-07T13:35:08;1.90;99.90
1297;DHT22;641;48.492;9.184;2024-01-07T13:37:41;2.00;99.90
1297;DHT22;641;48.492;9.184;2024-01-07T13:40:08;2.00;99.90
1297;DHT22;641;48.492;9.184;2024-01-07T13:42:36;2.00;99.90
1297;DHT22;641;48.492;9.184;2024-01-07T13:45:02;2.00;99.90
1297;DHT22;641;48.492;9.184;2024-01-07T13:47:28;1.90;99.90
1297;DHT22;641;48.492;9.184;2024-01-07T13:49:54;1.90;99.90
1297;DHT22;641;48.492;9.184;2024-01-07T13:52:19;2.00;99.90
1297;DHT22;641;48.492;9.184;2024-01-07T13:54:45;1.90;99.90
1297;DHT22;641;48.492;9.184;2024-01-07T13:57:10;1.90;99.90
1297;DHT22;641;48.492;9.184;2024-01-07T13:59:38;1.90;99.90
1297;DHT22;641;48.492;9.184;2024-01-07T14:02:05;1.90;99.90
1297;DHT22;641;48.492;9.184;2024-01-07T14:04:31;2.00;99.90
1297;DHT22;641;48.492;9.184;2024-01-07T14:06:57;1.90;99.90
1297;DHT22;641;48.492;9.184;2024-01-07T14:09:23;1.80;99.90
1297;DHT22;641;48.492;9.184;2024-01-07T14:11:50;1.90;99.90
1297;DHT22;641;48.492;9.184;2024-01-07T14:14:15;1.80;99.90
1297;DHT22;641;48.492;9.184;2024-01-07T14:16:41;1.90;99.90
1297;DHT22;641;48.492;9.184;2024-01-07T14:29:50;1.20;99.90
1297;DHT22;641;48.492;9.184;2024-01-07T14:42:25;0.90;99.90
1297;DHT22;641;48.492;9.184;2024-01-07T14:55:43;0.90;99.90
1297;DHT22;641;48.492;9.184;2024-01-07T14:58:09;1.00;99.90
1297;DHT22;641;48.492;9.184;2024-01-07T15:00:34;1.20;99.90
1297;DHT22;641;48.492;9.184;2024-01-07T15:03:00;1.30;99.90
1297;DHT22;641;48.492;9.184;2024-01-07T15:05:25;1.20;99.90
1297;DHT22;641;48.492;9.184;2024-01-07T15:39:09;0.50;99.90
1297;DHT22;641;48.492;9.184;2024-01-07T15:41:38;0.60;99.90
1297;DHT22;641;48.492;9.184;2024-01-07T15:51:12;0.60;99.90
1297;DHT22;641;48.492;9.184;2024-01-07T16:34:13;0.20;99.90
1297;DHT22;641;48.492;9.184;2024-01-07T16:36:42;0.30;99.90
1297;DHT22;641;48.492;9.184;2024-01-07T16:42:52;0.30;99.90
1297;DHT22;641;48.492;9.184;2024-01-07T16:45:19;0.20;99.90
1297;DHT22;641;48.492;9.184;2024-01-07T17:50:17;-0.20;99.90
1297;DHT22;641;48.492;9.184;2024-01-07T17:53:31;-0.20;99.90
1297;DHT22;641;48.492;9.184;2024-01-07T18:00:09;-0.40;99.90
1297;DHT22;641;48.492;9.184;2024-01-07T18:10:24;-0.50;99.90
1297;DHT22;641;48.492;9.184;2024-01-07T18:13:19;-0.50;99.90
1297;DHT22;641;48.492;9.184;2024-01-07T18:15:45;-0.40;99.90
1297;DHT22;641;48.492;9.184;2024-01-07T18:18:11;-0.30;99.90
1297;DHT22;641;48.492;9.184;2024-01-07T18:20:37;-0.20;99.90
1297;DHT22;641;48.492;9.184;2024-01-07T18:23:03;0.00;99.90
1297;DHT22;641;48.492;9.184;2024-01-07T18:25:29;0.00;99.90
1297;DHT22;641;48.492;9.184;2024-01-07T18:27:55;-0.20;99.90
1297;DHT22;641;48.492;9.184;2024-01-07T18:30:25;-0.10;99.90
1297;DHT22;641;48.492;9.184;2024-01-07T18:33:16;-0.30;99.90
1297;DHT22;641;48.492;9.184;2024-01-07T18:36:08;-0.20;99.90
1297;DHT22;641;48.492;9.184;2024-01-07T18:38:38;-0.30;99.90
1297;DHT22;641;48.492;9.184;2024-01-07T18:41:04;-0.20;99.90
1297;DHT22;641;48.492;9.184;2024-01-07T18:43:30;-0.30;99.90
1297;DHT22;641;48.492;9.184;2024-01-07T18:46:16;-0.40;99.90
1297;DHT22;641;48.492;9.184;2024-01-07T18:48:53;-0.40;99.90
1297;DHT22;641;48.492;9.184;2024-01-07T18:51:22;-0.40;99.90
1297;DHT22;641;48.492;9.184;2024-01-07T18:53:48;-0.60;99.90
1297;DHT22;641;48.492;9.184;2024-01-07T18:56:15;-0.50;99.90
1297;DHT22;641;48.492;9.184;2024-01-07T18:58:41;-0.30;99.90
1297;DHT22;641;48.492;9.184;2024-01-07T19:01:27;-0.40;99.90
1297;DHT22;641;48.492;9.184;2024-01-07T19:04:01;-0.30;99.90
1297;DHT22;641;48.492;9.184;2024-01-07T19:06:30;-0.30;99.90
1297;DHT22;641;48.492;9.184;2024-01-07T19:09:24;-0.40;99.90
1297;DHT22;641;48.492;9.184;2024-01-07T19:11:50;-0.50;99.90
1297;DHT22;641;48.492;9.184;2024-01-07T19:14:18;-0.60;99.90
1297;DHT22;641;48.492;9.184;2024-01-07T19:16:44;-0.50;99.90
1297;DHT22;641;48.492;9.184;2024-01-07T19:19:13;-0.70;99.90
1297;DHT22;641;48.492;9.184;2024-01-07T19:22:11;-0.80;99.90
1297;DHT22;641;48.492;9.184;2024-01-07T19:25:19;-0.70;99.90
1297;DHT22;641;48.492;9.184;2024-01-07T19:27:55;-0.80;99.90
1297;DHT22;641;48.492;9.184;2024-01-07T19:30:44;-0.90;99.90
1297;DHT22;641;48.492;9.184;2024-01-07T19:33:17;-0.80;99.90
1297;DHT22;641;48.492;9.184;2024-01-07T19:35:57;-0.80;99.90
1297;DHT22;641;48.492;9.184;2024-01-07T19:38:29;-0.90;99.90
1297;DHT22;641;48.492;9.184;2024-01-07T19:41:00;-0.90;99.90
1297;DHT22;641;48.492;9.184;2024-01-07T19:43:34;-0.90;99.90
1297;DHT22;641;48.492;9.184;2024-01-07T19:52:55;-1.00;99.90
1297;DHT22;641;48.492;9.184;2024-01-07T19:55:52;-0.80;99.90
1297;DHT22;641;48.492;9.184;2024-01-07T19:59:04;-0.80;99.90